Terminal Aerodrome Forecast
Issued by NWS Detroit/Pontiac, MI

Home | Current Version | Previous Version | Text Only | Print | Product List | Glossary On
Versions: 1 2 3 4 5 6 7 8 9 10 11 12 13 14 15 16 17 18 19 20 21
000
FTUS43 KDTX 211154 CCA
TAFFNT
TAF COR
KFNT 211154Z 2112/2212 32007KT 2SM -SHRA BR BKN007 OVC012
     FM211300 32008KT P6SM OVC015
     FM211500 34012G20KT P6SM OVC025
     FM212300 36008KT P6SM OVC025=

USA.gov is the U.S. government's official web portal to all federal, state and local government web resources and services.